x

Stannard Rock, Mi (stdm4) Weather Station

9:00pm - Mon 23rd Oct 2017 All times are CDT. -5 hours from GMT.

  • Wind
    11mph, 14mph gusts
  • Air Temp 51°f
  • Sea Pressure 1003.7mb
  • Stannard Rock, Mi
  • Stannard Rock, Mi

More Historic Weather Station data

Upgrade to MSW Pro to gain access to the past 30 days of data for over 8000 Wavebouys and Weather Stations around the globe.

Join

Comparision Forecast

View Surf forecast
   
Mon 10/23 9:00pm 11 14 mph 1003.7mb 51f
8:00pm 11 11 mph 1004mb 51f
7:00pm 11 11 mph 1004.9mb 52f
6:00pm 16 18 mph 1005.1mb 52f
5:00pm 18 20 mph 1005.1mb 52f
4:00pm 18 21 mph 1006mb 52f
3:00pm 16 17 mph 1006.3mb 51f
2:00pm 18 21 mph 1006.9mb 52f
1:00pm 21 23 mph 1007.2mb 52f
12:00pm 21 23 mph 1008.1mb 51f
11:00am 23 24 mph 1008.1mb 50f
10:00am 20 21 mph 1009mb 50f
9:00am 21 23 mph 1009.7mb 51f
8:00am 15 16 mph 1010.7mb 51f
7:00am 15 16 mph 1011.4mb 51f
6:00am 11 13 mph 1011.9mb 51f
5:00am 9 10 mph 1012.1mb 51f
4:00am 8 9 mph 1012.3mb 51f
3:00am 9 10 mph 1012.9mb 51f
2:00am 9 10 mph 1013.2mb 51f
1:00am 10 10 mph 1013.4mb 51f
12:00am 14 15 mph 1013.5mb 51f
Sun 10/22 11:00pm 14 15 mph 1013.8mb 51f
10:00pm 17 18 mph 1014.1mb 52f
9:00pm 18 20 mph 1014.1mb 52f
8:00pm 18 20 mph 1014mb 52f
7:00pm 20 22 mph 1013.4mb 52f
6:00pm 21 22 mph 1013.3mb 52f
5:00pm 17 18 mph 1012.3mb 51f
4:00pm 15 16 mph 1012.5mb 51f
3:00pm 22 23 mph 1012mb 51f
2:00pm 23 24 mph 1012.1mb 52f
1:00pm 21 23 mph 1011.9mb 51f
12:00pm 20 22 mph 1011.6mb 52f
11:00am 25 26 mph 1011.5mb 52f
10:00am 20 22 mph 1010.7mb 54f
9:00am 18 20 mph 1010.3mb 56f
8:00am 24 25 mph 1008.8mb 57f
7:00am 28 30 mph 1007.4mb 58f
6:00am 37 39 mph 1006.6mb 58f
5:00am 28 31 mph 1007.6mb 58f
4:00am 28 29 mph 1008.6mb 58f
3:00am 34 36 mph 1009mb 59f
2:00am 32 33 mph 1009.3mb 62f
1:00am 36 37 mph 1009.7mb 63f
12:00am 34 36 mph 1009.2mb 61f
Sat 10/21 11:00pm 30 31 mph 1009.7mb 59f
10:00pm 21 22 mph 1010.5mb 56f
9:00pm 25 28 mph 1010.6mb 58f
8:00pm 29 30 mph 1010.6mb 58f
7:00pm 28 29 mph 1009.8mb 60f
6:00pm 32 33 mph 1009.3mb 60f
5:00pm 30 31 mph 1009.1mb 61f
4:00pm 24 26 mph 1009.6mb 60f
3:00pm 28 29 mph 1009.7mb 60f
2:00pm 26 28 mph 1010mb 59f
1:00pm 23 25 mph 1010.3mb 59f
12:00pm 30 31 mph 1010.3mb 58f
11:00am 31 32 mph 1010.9mb 57f
10:00am 26 28 mph 1011.1mb 57f
9:00am 36 39 mph 1010.5mb 59f
8:00am 23 24 mph 1011.2mb 57f
7:00am 24 25 mph 1011.3mb 58f
6:00am 28 29 mph 1010.9mb 59f
5:00am 25 26 mph 1010.8mb 58f
4:00am 30 31 mph 1011.4mb 59f
3:00am 32 34 mph 1010.9mb 60f
2:00am 9 14 mph 1011.6mb 58f
1:00am 22 24 mph 1011.4mb 61f
12:00am 24 24 mph 1011.3mb 60f
Fri 10/20 11:00pm 29 30 mph 1011mb 60f
10:00pm 24 26 mph 1010.8mb 59f
9:00pm 26 29 mph 1010.6mb 60f
8:00pm 31 32 mph 1010mb 64f
7:00pm 32 33 mph 1009.9mb 63f
6:00pm 31 32 mph 1009.9mb 62f
5:00pm 29 30 mph 1009.6mb 69f
4:00pm 26 26 mph 1010mb 65f
3:00pm 23 24 mph 1010.5mb 63f
2:00pm 20 20 mph 1011.4mb 63f
1:00pm 22 22 mph 1012.2mb 61f
12:00pm 17 17 mph 1013.1mb 55f
11:00am 20 20 mph 1013.6mb 54f
10:00am 21 22 mph 1013.6mb 54f
9:00am 24 25 mph 1014mb 54f
8:00am 24 25 mph 1014mb 54f
7:00am 26 28 mph 1013.9mb 53f
6:00am 23 24 mph 1014.2mb 53f
5:00am 24 25 mph 1014.5mb 54f
4:00am 23 23 mph 1014.5mb 57f